sensor_id;sensor_type;location;lat;lon;timestamp;P1;durP1;ratioP1;P2;durP2;ratioP2
14251;SDS011;7210;51.502;10.722;2023-10-08T00:00:44;12.57;;;6.80;;
14251;SDS011;7210;51.502;10.722;2023-10-08T00:03:14;11.60;;;7.30;;
14251;SDS011;7210;51.502;10.722;2023-10-08T00:05:43;10.40;;;6.97;;
14251;SDS011;7210;51.502;10.722;2023-10-08T00:08:11;11.97;;;6.70;;
14251;SDS011;7210;51.502;10.722;2023-10-08T00:10:41;8.87;;;6.77;;
14251;SDS011;7210;51.502;10.722;2023-10-08T00:13:10;8.77;;;6.60;;
14251;SDS011;7210;51.502;10.722;2023-10-08T00:15:41;8.97;;;6.23;;
14251;SDS011;7210;51.502;10.722;2023-10-08T00:18:17;11.47;;;6.37;;
14251;SDS011;7210;51.502;10.722;2023-10-08T00:20:45;13.67;;;7.43;;
14251;SDS011;7210;51.502;10.722;2023-10-08T00:23:22;12.97;;;6.97;;
14251;SDS011;7210;51.502;10.722;2023-10-08T00:25:53;11.80;;;6.60;;
14251;SDS011;7210;51.502;10.722;2023-10-08T00:28:24;11.10;;;6.83;;
14251;SDS011;7210;51.502;10.722;2023-10-08T00:30:53;11.70;;;6.70;;
14251;SDS011;7210;51.502;10.722;2023-10-08T00:33:20;12.70;;;7.30;;
14251;SDS011;7210;51.502;10.722;2023-10-08T00:35:47;12.03;;;6.80;;
14251;SDS011;7210;51.502;10.722;2023-10-08T00:38:15;10.53;;;6.50;;
14251;SDS011;7210;51.502;10.722;2023-10-08T00:40:46;13.20;;;7.20;;
14251;SDS011;7210;51.502;10.722;2023-10-08T00:43:31;11.27;;;6.87;;
14251;SDS011;7210;51.502;10.722;2023-10-08T00:46:00;15.43;;;7.97;;
14251;SDS011;7210;51.502;10.722;2023-10-08T00:48:28;10.50;;;7.13;;
14251;SDS011;7210;51.502;10.722;2023-10-08T00:51:01;9.70;;;7.63;;
14251;SDS011;7210;51.502;10.722;2023-10-08T00:53:42;10.73;;;7.43;;
14251;SDS011;7210;51.502;10.722;2023-10-08T00:56:11;12.07;;;7.50;;
14251;SDS011;7210;51.502;10.722;2023-10-08T00:58:45;13.93;;;8.27;;
14251;SDS011;7210;51.502;10.722;2023-10-08T01:01:14;12.63;;;8.27;;
14251;SDS011;7210;51.502;10.722;2023-10-08T01:03:42;14.17;;;8.20;;
14251;SDS011;7210;51.502;10.722;2023-10-08T01:06:10;14.53;;;9.00;;
14251;SDS011;7210;51.502;10.722;2023-10-08T01:08:43;12.17;;;8.13;;
14251;SDS011;7210;51.502;10.722;2023-10-08T01:11:17;12.03;;;8.70;;
14251;SDS011;7210;51.502;10.722;2023-10-08T01:13:48;11.97;;;9.00;;
14251;SDS011;7210;51.502;10.722;2023-10-08T01:16:16;14.53;;;10.20;;
14251;SDS011;7210;51.502;10.722;2023-10-08T01:18:44;14.83;;;10.73;;
14251;SDS011;7210;51.502;10.722;2023-10-08T01:21:16;14.83;;;10.90;;
14251;SDS011;7210;51.502;10.722;2023-10-08T01:24:07;16.20;;;11.03;;
14251;SDS011;7210;51.502;10.722;2023-10-08T01:26:41;16.30;;;10.30;;
14251;SDS011;7210;51.502;10.722;2023-10-08T01:29:10;18.20;;;11.20;;
14251;SDS011;7210;51.502;10.722;2023-10-08T01:31:45;17.93;;;11.87;;
14251;SDS011;7210;51.502;10.722;2023-10-08T01:34:13;16.67;;;11.33;;
14251;SDS011;7210;51.502;10.722;2023-10-08T01:36:42;18.23;;;12.13;;
14251;SDS011;7210;51.502;10.722;2023-10-08T01:39:11;18.63;;;11.77;;
14251;SDS011;7210;51.502;10.722;2023-10-08T01:41:42;17.90;;;11.70;;
14251;SDS011;7210;51.502;10.722;2023-10-08T01:44:11;17.80;;;11.73;;
14251;SDS011;7210;51.502;10.722;2023-10-08T01:46:39;13.53;;;11.60;;
14251;SDS011;7210;51.502;10.722;2023-10-08T01:49:07;15.73;;;11.83;;
14251;SDS011;7210;51.502;10.722;2023-10-08T01:51:39;14.77;;;11.63;;
14251;SDS011;7210;51.502;10.722;2023-10-08T01:54:13;15.27;;;11.20;;
14251;SDS011;7210;51.502;10.722;2023-10-08T01:56:43;17.30;;;11.63;;
14251;SDS011;7210;51.502;10.722;2023-10-08T01:59:10;17.50;;;12.43;;
14251;SDS011;7210;51.502;10.722;2023-10-08T02:01:41;16.13;;;11.83;;
14251;SDS011;7210;51.502;10.722;2023-10-08T02:04:10;14.43;;;11.87;;
14251;SDS011;7210;51.502;10.722;2023-10-08T02:06:42;20.50;;;13.33;;
14251;SDS011;7210;51.502;10.722;2023-10-08T02:09:13;19.97;;;12.83;;
14251;SDS011;7210;51.502;10.722;2023-10-08T02:11:41;17.57;;;11.43;;
14251;SDS011;7210;51.502;10.722;2023-10-08T02:14:12;17.00;;;12.10;;
14251;SDS011;7210;51.502;10.722;2023-10-08T02:16:40;16.57;;;12.17;;
14251;SDS011;7210;51.502;10.722;2023-10-08T02:19:09;17.07;;;12.43;;
14251;SDS011;7210;51.502;10.722;2023-10-08T02:21:36;16.73;;;12.20;;
14251;SDS011;7210;51.502;10.722;2023-10-08T02:24:07;16.93;;;9.73;;
14251;SDS011;7210;51.502;10.722;2023-10-08T02:26:38;5.93;;;4.10;;
14251;SDS011;7210;51.502;10.722;2023-10-08T02:29:08;5.67;;;1.70;;
14251;SDS011;7210;51.502;10.722;2023-10-08T02:31:37;4.30;;;1.73;;
14251;SDS011;7210;51.502;10.722;2023-10-08T02:34:05;3.20;;;0.90;;
14251;SDS011;7210;51.502;10.722;2023-10-08T02:36:36;0.50;;;0.50;;
14251;SDS011;7210;51.502;10.722;2023-10-08T02:39:05;0.83;;;0.70;;
14251;SDS011;7210;51.502;10.722;2023-10-08T02:41:40;1.43;;;0.70;;
14251;SDS011;7210;51.502;10.722;2023-10-08T02:44:07;0.43;;;0.43;;
14251;SDS011;7210;51.502;10.722;2023-10-08T02:46:42;1.63;;;0.60;;
14251;SDS011;7210;51.502;10.722;2023-10-08T02:49:12;0.43;;;0.43;;
14251;SDS011;7210;51.502;10.722;2023-10-08T02:51:44;0.97;;;0.60;;
14251;SDS011;7210;51.502;10.722;2023-10-08T02:54:15;0.67;;;0.30;;
14251;SDS011;7210;51.502;10.722;2023-10-08T02:56:46;0.30;;;0.30;;
14251;SDS011;7210;51.502;10.722;2023-10-08T02:59:17;0.40;;;0.40;;
14251;SDS011;7210;51.502;10.722;2023-10-08T03:01:47;0.30;;;0.30;;
14251;SDS011;7210;51.502;10.722;2023-10-08T03:04:15;0.30;;;0.30;;
14251;SDS011;7210;51.502;10.722;2023-10-08T03:06:44;0.37;;;0.30;;
14251;SDS011;7210;51.502;10.722;2023-10-08T03:09:16;0.40;;;0.40;;
14251;SDS011;7210;51.502;10.722;2023-10-08T03:11:48;1.00;;;0.80;;
14251;SDS011;7210;51.502;10.722;2023-10-08T03:14:18;0.40;;;0.40;;
14251;SDS011;7210;51.502;10.722;2023-10-08T03:16:48;0.80;;;0.40;;
14251;SDS011;7210;51.502;10.722;2023-10-08T03:19:17;0.87;;;0.40;;
14251;SDS011;7210;51.502;10.722;2023-10-08T03:21:51;0.40;;;0.40;;
14251;SDS011;7210;51.502;10.722;2023-10-08T03:24:20;1.53;;;0.60;;
14251;SDS011;7210;51.502;10.722;2023-10-08T03:27:07;0.40;;;0.40;;
14251;SDS011;7210;51.502;10.722;2023-10-08T03:29:40;0.60;;;0.40;;
14251;SDS011;7210;51.502;10.722;2023-10-08T03:32:12;1.07;;;0.43;;
14251;SDS011;7210;51.502;10.722;2023-10-08T03:34:44;0.60;;;0.43;;
14251;SDS011;7210;51.502;10.722;2023-10-08T03:37:19;0.47;;;0.47;;
14251;SDS011;7210;51.502;10.722;2023-10-08T03:39:54;0.40;;;0.40;;
14251;SDS011;7210;51.502;10.722;2023-10-08T03:42:34;0.40;;;0.40;;
14251;SDS011;7210;51.502;10.722;2023-10-08T03:45:06;0.50;;;0.50;;
14251;SDS011;7210;51.502;10.722;2023-10-08T03:47:38;0.40;;;0.40;;
14251;SDS011;7210;51.502;10.722;2023-10-08T03:50:11;0.50;;;0.50;;
14251;SDS011;7210;51.502;10.722;2023-10-08T03:52:42;1.90;;;0.70;;
14251;SDS011;7210;51.502;10.722;2023-10-08T03:55:09;0.67;;;0.50;;
14251;SDS011;7210;51.502;10.722;2023-10-08T03:57:49;1.50;;;0.40;;
14251;SDS011;7210;51.502;10.722;2023-10-08T04:00:22;1.17;;;0.50;;
14251;SDS011;7210;51.502;10.722;2023-10-08T04:02:56;0.40;;;0.40;;
14251;SDS011;7210;51.502;10.722;2023-10-08T04:05:42;0.70;;;0.40;;
14251;SDS011;7210;51.502;10.722;2023-10-08T04:08:30;0.77;;;0.60;;
14251;SDS011;7210;51.502;10.722;2023-10-08T04:11:09;0.50;;;0.50;;
14251;SDS011;7210;51.502;10.722;2023-10-08T04:13:54;3.30;;;0.63;;
14251;SDS011;7210;51.502;10.722;2023-10-08T04:16:25;1.10;;;0.50;;
14251;SDS011;7210;51.502;10.722;2023-10-08T04:18:53;0.40;;;0.40;;
14251;SDS011;7210;51.502;10.722;2023-10-08T04:21:21;0.40;;;0.40;;
14251;SDS011;7210;51.502;10.722;2023-10-08T04:23:52;0.90;;;0.40;;
14251;SDS011;7210;51.502;10.722;2023-10-08T04:26:22;0.40;;;0.40;;
14251;SDS011;7210;51.502;10.722;2023-10-08T04:28:50;0.30;;;0.30;;
14251;SDS011;7210;51.502;10.722;2023-10-08T04:31:23;0.30;;;0.30;;
14251;SDS011;7210;51.502;10.722;2023-10-08T04:33:53;0.30;;;0.30;;
14251;SDS011;7210;51.502;10.722;2023-10-08T04:36:25;0.30;;;0.30;;
14251;SDS011;7210;51.502;10.722;2023-10-08T04:38:53;0.30;;;0.30;;
14251;SDS011;7210;51.502;10.722;2023-10-08T04:41:27;0.13;;;0.13;;
14251;SDS011;7210;51.502;10.722;2023-10-08T04:43:54;0.67;;;0.50;;
14251;SDS011;7210;51.502;10.722;2023-10-08T04:46:21;0.30;;;0.30;;
14251;SDS011;7210;51.502;10.722;2023-10-08T04:49:12;0.37;;;0.37;;
14251;SDS011;7210;51.502;10.722;2023-10-08T04:52:00;0.30;;;0.30;;
14251;SDS011;7210;51.502;10.722;2023-10-08T04:54:39;0.53;;;0.50;;
14251;SDS011;7210;51.502;10.722;2023-10-08T04:57:16;0.37;;;0.37;;
14251;SDS011;7210;51.502;10.722;2023-10-08T04:59:47;1.20;;;0.50;;
14251;SDS011;7210;51.502;10.722;2023-10-08T05:02:17;0.50;;;0.43;;
14251;SDS011;7210;51.502;10.722;2023-10-08T05:04:46;0.40;;;0.30;;
14251;SDS011;7210;51.502;10.722;2023-10-08T05:07:48;0.37;;;0.37;;
14251;SDS011;7210;51.502;10.722;2023-10-08T05:10:42;0.70;;;0.40;;
14251;SDS011;7210;51.502;10.722;2023-10-08T05:13:28;1.80;;;0.40;;
14251;SDS011;7210;51.502;10.722;2023-10-08T05:16:10;0.40;;;0.40;;
14251;SDS011;7210;51.502;10.722;2023-10-08T05:19:02;0.50;;;0.50;;
14251;SDS011;7210;51.502;10.722;2023-10-08T05:21:48;0.40;;;0.40;;
14251;SDS011;7210;51.502;10.722;2023-10-08T05:24:36;1.27;;;0.40;;
14251;SDS011;7210;51.502;10.722;2023-10-08T05:27:04;1.13;;;0.47;;
14251;SDS011;7210;51.502;10.722;2023-10-08T05:30:03;1.20;;;0.40;;
14251;SDS011;7210;51.502;10.722;2023-10-08T05:32:40;0.80;;;0.50;;
14251;SDS011;7210;51.502;10.722;2023-10-08T05:35:32;1.03;;;0.50;;
14251;SDS011;7210;51.502;10.722;2023-10-08T05:38:16;0.33;;;0.33;;
14251;SDS011;7210;51.502;10.722;2023-10-08T05:41:05;0.40;;;0.40;;
14251;SDS011;7210;51.502;10.722;2023-10-08T05:43:46;0.57;;;0.57;;
14251;SDS011;7210;51.502;10.722;2023-10-08T05:46:42;0.50;;;0.50;;
14251;SDS011;7210;51.502;10.722;2023-10-08T05:49:36;1.03;;;0.70;;
14251;SDS011;7210;51.502;10.722;2023-10-08T05:52:21;0.80;;;0.70;;
14251;SDS011;7210;51.502;10.722;2023-10-08T05:55:06;4.13;;;3.10;;
14251;SDS011;7210;51.502;10.722;2023-10-08T05:57:48;2.50;;;2.00;;
14251;SDS011;7210;51.502;10.722;2023-10-08T06:00:18;1.70;;;1.60;;
14251;SDS011;7210;51.502;10.722;2023-10-08T06:03:03;1.77;;;1.20;;
14251;SDS011;7210;51.502;10.722;2023-10-08T06:05:54;1.67;;;1.20;;
14251;SDS011;7210;51.502;10.722;2023-10-08T06:08:34;1.07;;;0.90;;
14251;SDS011;7210;51.502;10.722;2023-10-08T06:11:14;1.10;;;0.80;;
14251;SDS011;7210;51.502;10.722;2023-10-08T06:13:53;1.63;;;0.93;;
14251;SDS011;7210;51.502;10.722;2023-10-08T06:16:30;2.83;;;0.83;;
14251;SDS011;7210;51.502;10.722;2023-10-08T06:19:07;2.60;;;1.53;;
14251;SDS011;7210;51.502;10.722;2023-10-08T06:21:35;5.33;;;4.90;;
14251;SDS011;7210;51.502;10.722;2023-10-08T06:24:05;1.43;;;1.30;;
14251;SDS011;7210;51.502;10.722;2023-10-08T06:26:36;6.00;;;3.57;;
14251;SDS011;7210;51.502;10.722;2023-10-08T06:29:10;3.50;;;3.20;;
14251;SDS011;7210;51.502;10.722;2023-10-08T06:31:51;11.70;;;10.70;;
14251;SDS011;7210;51.502;10.722;2023-10-08T06:34:20;2.93;;;1.70;;
14251;SDS011;7210;51.502;10.722;2023-10-08T06:36:53;1.90;;;1.80;;
14251;SDS011;7210;51.502;10.722;2023-10-08T06:39:24;5.13;;;1.70;;
14251;SDS011;7210;51.502;10.722;2023-10-08T06:41:58;2.20;;;1.00;;
14251;SDS011;7210;51.502;10.722;2023-10-08T06:44:36;2.70;;;1.30;;
14251;SDS011;7210;51.502;10.722;2023-10-08T06:47:07;3.00;;;1.20;;
14251;SDS011;7210;51.502;10.722;2023-10-08T06:49:35;1.30;;;1.20;;
14251;SDS011;7210;51.502;10.722;2023-10-08T06:52:04;1.63;;;1.40;;
14251;SDS011;7210;51.502;10.722;2023-10-08T06:54:37;3.27;;;1.40;;
14251;SDS011;7210;51.502;10.722;2023-10-08T06:57:04;2.03;;;1.30;;
14251;SDS011;7210;51.502;10.722;2023-10-08T06:59:38;2.33;;;0.90;;
14251;SDS011;7210;51.502;10.722;2023-10-08T07:02:07;1.50;;;1.33;;
14251;SDS011;7210;51.502;10.722;2023-10-08T07:04:35;3.30;;;1.40;;
14251;SDS011;7210;51.502;10.722;2023-10-08T07:07:04;1.57;;;1.10;;
14251;SDS011;7210;51.502;10.722;2023-10-08T07:09:34;8.67;;;7.70;;
14251;SDS011;7210;51.502;10.722;2023-10-08T07:12:03;2.03;;;1.57;;
14251;SDS011;7210;51.502;10.722;2023-10-08T07:14:39;2.33;;;1.77;;
14251;SDS011;7210;51.502;10.722;2023-10-08T07:17:07;4.43;;;2.10;;
14251;SDS011;7210;51.502;10.722;2023-10-08T07:19:37;2.10;;;1.57;;
14251;SDS011;7210;51.502;10.722;2023-10-08T07:22:07;3.13;;;1.77;;
14251;SDS011;7210;51.502;10.722;2023-10-08T07:24:47;3.83;;;3.40;;
14251;SDS011;7210;51.502;10.722;2023-10-08T07:27:17;3.87;;;3.47;;
14251;SDS011;7210;51.502;10.722;2023-10-08T07:29:46;4.57;;;2.77;;
14251;SDS011;7210;51.502;10.722;2023-10-08T07:32:14;5.13;;;2.60;;
14251;SDS011;7210;51.502;10.722;2023-10-08T07:34:43;2.77;;;1.60;;
14251;SDS011;7210;51.502;10.722;2023-10-08T07:37:11;2.97;;;1.70;;
14251;SDS011;7210;51.502;10.722;2023-10-08T07:39:39;2.63;;;1.50;;
14251;SDS011;7210;51.502;10.722;2023-10-08T07:42:11;2.57;;;2.00;;
14251;SDS011;7210;51.502;10.722;2023-10-08T07:44:40;2.43;;;2.00;;
14251;SDS011;7210;51.502;10.722;2023-10-08T07:47:09;1.87;;;1.40;;
14251;SDS011;7210;51.502;10.722;2023-10-08T07:49:37;2.40;;;1.20;;
14251;SDS011;7210;51.502;10.722;2023-10-08T07:52:05;2.03;;;1.20;;
14251;SDS011;7210;51.502;10.722;2023-10-08T07:54:32;7.77;;;6.97;;
14251;SDS011;7210;51.502;10.722;2023-10-08T07:57:00;5.93;;;3.70;;
14251;SDS011;7210;51.502;10.722;2023-10-08T07:59:35;10.17;;;8.83;;
14251;SDS011;7210;51.502;10.722;2023-10-08T08:02:05;3.03;;;2.43;;
14251;SDS011;7210;51.502;10.722;2023-10-08T08:04:42;5.00;;;2.50;;
14251;SDS011;7210;51.502;10.722;2023-10-08T08:07:15;3.57;;;1.80;;
14251;SDS011;7210;51.502;10.722;2023-10-08T08:09:44;1.50;;;1.20;;
14251;SDS011;7210;51.502;10.722;2023-10-08T08:12:16;1.73;;;1.27;;
14251;SDS011;7210;51.502;10.722;2023-10-08T08:14:44;4.70;;;1.47;;
14251;SDS011;7210;51.502;10.722;2023-10-08T08:17:13;1.97;;;1.30;;
14251;SDS011;7210;51.502;10.722;2023-10-08T08:19:42;3.27;;;1.13;;
14251;SDS011;7210;51.502;10.722;2023-10-08T08:22:12;2.40;;;1.40;;
14251;SDS011;7210;51.502;10.722;2023-10-08T08:24:46;2.37;;;1.17;;
14251;SDS011;7210;51.502;10.722;2023-10-08T08:27:17;1.93;;;1.33;;
14251;SDS011;7210;51.502;10.722;2023-10-08T08:29:50;3.23;;;1.30;;
14251;SDS011;7210;51.502;10.722;2023-10-08T08:32:22;1.93;;;1.30;;
14251;SDS011;7210;51.502;10.722;2023-10-08T08:34:54;3.47;;;1.43;;
14251;SDS011;7210;51.502;10.722;2023-10-08T08:37:23;2.00;;;1.20;;
14251;SDS011;7210;51.502;10.722;2023-10-08T08:39:57;2.63;;;1.30;;
14251;SDS011;7210;51.502;10.722;2023-10-08T08:42:24;1.77;;;1.20;;
14251;SDS011;7210;51.502;10.722;2023-10-08T08:45:00;1.40;;;1.30;;
14251;SDS011;7210;51.502;10.722;2023-10-08T08:47:35;3.23;;;1.27;;
14251;SDS011;7210;51.502;10.722;2023-10-08T08:50:06;1.77;;;1.20;;
14251;SDS011;7210;51.502;10.722;2023-10-08T08:52:34;2.17;;;1.03;;
14251;SDS011;7210;51.502;10.722;2023-10-08T08:55:03;2.17;;;1.17;;
14251;SDS011;7210;51.502;10.722;2023-10-08T08:57:39;1.30;;;1.10;;
14251;SDS011;7210;51.502;10.722;2023-10-08T09:00:09;2.17;;;1.30;;
14251;SDS011;7210;51.502;10.722;2023-10-08T09:02:44;1.87;;;1.10;;
14251;SDS011;7210;51.502;10.722;2023-10-08T09:05:13;2.07;;;1.40;;
14251;SDS011;7210;51.502;10.722;2023-10-08T09:07:55;1.30;;;1.20;;
14251;SDS011;7210;51.502;10.722;2023-10-08T09:10:25;1.70;;;1.30;;
14251;SDS011;7210;51.502;10.722;2023-10-08T09:12:54;1.30;;;1.13;;
14251;SDS011;7210;51.502;10.722;2023-10-08T09:15:23;1.53;;;1.20;;
14251;SDS011;7210;51.502;10.722;2023-10-08T09:17:53;2.03;;;1.07;;
14251;SDS011;7210;51.502;10.722;2023-10-08T09:20:21;3.00;;;2.27;;
14251;SDS011;7210;51.502;10.722;2023-10-08T09:22:59;2.27;;;2.00;;
14251;SDS011;7210;51.502;10.722;2023-10-08T09:25:37;41.90;;;32.17;;
14251;SDS011;7210;51.502;10.722;2023-10-08T09:28:05;3.27;;;2.40;;
14251;SDS011;7210;51.502;10.722;2023-10-08T09:30:34;10.60;;;8.83;;
14251;SDS011;7210;51.502;10.722;2023-10-08T09:33:05;1.93;;;1.63;;
14251;SDS011;7210;51.502;10.722;2023-10-08T09:35:36;1.50;;;1.10;;
14251;SDS011;7210;51.502;10.722;2023-10-08T09:40:47;3.87;;;2.57;;
14251;SDS011;7210;51.502;10.722;2023-10-08T09:43:16;2.50;;;2.30;;
14251;SDS011;7210;51.502;10.722;2023-10-08T09:45:46;1.30;;;1.20;;
14251;SDS011;7210;51.502;10.722;2023-10-08T09:48:20;2.10;;;1.20;;
14251;SDS011;7210;51.502;10.722;2023-10-08T09:50:51;1.57;;;1.10;;
14251;SDS011;7210;51.502;10.722;2023-10-08T09:53:26;2.70;;;1.20;;
14251;SDS011;7210;51.502;10.722;2023-10-08T09:56:12;3.20;;;1.60;;
14251;SDS011;7210;51.502;10.722;2023-10-08T09:58:48;1.47;;;1.37;;
14251;SDS011;7210;51.502;10.722;2023-10-08T10:01:18;2.37;;;1.50;;
14251;SDS011;7210;51.502;10.722;2023-10-08T10:03:50;2.20;;;1.00;;
14251;SDS011;7210;51.502;10.722;2023-10-08T10:06:17;2.63;;;1.50;;
14251;SDS011;7210;51.502;10.722;2023-10-08T10:08:45;3.07;;;2.17;;
14251;SDS011;7210;51.502;10.722;2023-10-08T10:11:15;2.10;;;1.30;;
14251;SDS011;7210;51.502;10.722;2023-10-08T10:13:43;2.23;;;1.60;;
14251;SDS011;7210;51.502;10.722;2023-10-08T10:16:17;4.00;;;2.67;;
14251;SDS011;7210;51.502;10.722;2023-10-08T10:18:49;4.33;;;1.90;;
14251;SDS011;7210;51.502;10.722;2023-10-08T10:21:26;3.93;;;2.40;;
14251;SDS011;7210;51.502;10.722;2023-10-08T10:23:58;6.13;;;3.70;;
14251;SDS011;7210;51.502;10.722;2023-10-08T10:26:26;7.23;;;4.30;;
14251;SDS011;7210;51.502;10.722;2023-10-08T10:31:49;4.27;;;2.83;;
14251;SDS011;7210;51.502;10.722;2023-10-08T10:34:21;3.30;;;1.40;;
14251;SDS011;7210;51.502;10.722;2023-10-08T10:37:07;2.10;;;1.40;;
14251;SDS011;7210;51.502;10.722;2023-10-08T10:39:51;2.47;;;1.33;;
14251;SDS011;7210;51.502;10.722;2023-10-08T10:42:24;1.73;;;1.23;;
14251;SDS011;7210;51.502;10.722;2023-10-08T10:44:53;2.37;;;1.20;;
14251;SDS011;7210;51.502;10.722;2023-10-08T10:47:23;1.40;;;1.27;;
14251;SDS011;7210;51.502;10.722;2023-10-08T10:50:09;2.73;;;1.20;;
14251;SDS011;7210;51.502;10.722;2023-10-08T10:53:00;2.47;;;1.03;;
14251;SDS011;7210;51.502;10.722;2023-10-08T10:55:36;1.90;;;1.50;;
14251;SDS011;7210;51.502;10.722;2023-10-08T10:58:13;4.20;;;1.37;;
14251;SDS011;7210;51.502;10.722;2023-10-08T11:00:43;2.33;;;1.30;;
14251;SDS011;7210;51.502;10.722;2023-10-08T11:03:12;2.20;;;1.30;;
14251;SDS011;7210;51.502;10.722;2023-10-08T11:05:51;7.60;;;6.17;;
14251;SDS011;7210;51.502;10.722;2023-10-08T11:08:24;3.27;;;1.50;;
14251;SDS011;7210;51.502;10.722;2023-10-08T11:10:59;2.67;;;1.20;;
14251;SDS011;7210;51.502;10.722;2023-10-08T11:13:32;1.57;;;1.20;;
14251;SDS011;7210;51.502;10.722;2023-10-08T11:16:04;2.60;;;1.43;;
14251;SDS011;7210;51.502;10.722;2023-10-08T11:18:34;4.53;;;1.13;;
14251;SDS011;7210;51.502;10.722;2023-10-08T11:21:10;3.47;;;2.23;;
14251;SDS011;7210;51.502;10.722;2023-10-08T11:23:41;1.87;;;1.43;;
14251;SDS011;7210;51.502;10.722;2023-10-08T11:26:18;2.80;;;1.33;;
14251;SDS011;7210;51.502;10.722;2023-10-08T11:28:55;1.27;;;1.17;;
14251;SDS011;7210;51.502;10.722;2023-10-08T11:31:26;2.30;;;1.50;;
14251;SDS011;7210;51.502;10.722;2023-10-08T11:33:58;1.57;;;1.40;;
14251;SDS011;7210;51.502;10.722;2023-10-08T11:36:35;2.10;;;1.37;;
14251;SDS011;7210;51.502;10.722;2023-10-08T11:39:14;3.90;;;1.47;;
14251;SDS011;7210;51.502;10.722;2023-10-08T11:41:54;2.07;;;1.20;;
14251;SDS011;7210;51.502;10.722;2023-10-08T11:44:28;2.90;;;2.00;;
14251;SDS011;7210;51.502;10.722;2023-10-08T11:46:56;5.37;;;3.07;;
14251;SDS011;7210;51.502;10.722;2023-10-08T11:49:30;3.43;;;1.40;;
14251;SDS011;7210;51.502;10.722;2023-10-08T11:52:03;2.87;;;1.30;;
14251;SDS011;7210;51.502;10.722;2023-10-08T11:54:30;2.93;;;2.13;;
14251;SDS011;7210;51.502;10.722;2023-10-08T11:56:58;3.87;;;3.07;;
14251;SDS011;7210;51.502;10.722;2023-10-08T11:59:28;4.50;;;3.67;;
14251;SDS011;7210;51.502;10.722;2023-10-08T12:01:57;3.03;;;2.67;;
14251;SDS011;7210;51.502;10.722;2023-10-08T12:04:24;5.27;;;2.77;;
14251;SDS011;7210;51.502;10.722;2023-10-08T12:06:54;3.13;;;1.80;;
14251;SDS011;7210;51.502;10.722;2023-10-08T12:09:23;4.70;;;1.70;;
14251;SDS011;7210;51.502;10.722;2023-10-08T12:11:52;1.83;;;1.30;;
14251;SDS011;7210;51.502;10.722;2023-10-08T12:14:21;4.20;;;1.50;;
14251;SDS011;7210;51.502;10.722;2023-10-08T12:16:52;2.83;;;1.80;;
14251;SDS011;7210;51.502;10.722;2023-10-08T12:19:21;5.47;;;3.60;;
14251;SDS011;7210;51.502;10.722;2023-10-08T12:21:48;4.50;;;2.30;;
14251;SDS011;7210;51.502;10.722;2023-10-08T12:24:16;3.63;;;2.63;;
14251;SDS011;7210;51.502;10.722;2023-10-08T12:26:46;1.80;;;1.50;;
14251;SDS011;7210;51.502;10.722;2023-10-08T12:29:14;2.50;;;1.40;;
14251;SDS011;7210;51.502;10.722;2023-10-08T12:31:43;2.87;;;1.70;;
14251;SDS011;7210;51.502;10.722;2023-10-08T12:34:18;3.47;;;1.47;;
14251;SDS011;7210;51.502;10.722;2023-10-08T12:36:48;4.23;;;1.40;;
14251;SDS011;7210;51.502;10.722;2023-10-08T12:39:15;2.83;;;1.43;;
14251;SDS011;7210;51.502;10.722;2023-10-08T12:41:43;3.30;;;1.50;;
14251;SDS011;7210;51.502;10.722;2023-10-08T12:44:14;1.60;;;1.50;;
14251;SDS011;7210;51.502;10.722;2023-10-08T12:46:41;3.67;;;1.50;;
14251;SDS011;7210;51.502;10.722;2023-10-08T12:49:12;2.90;;;1.60;;
14251;SDS011;7210;51.502;10.722;2023-10-08T12:51:39;2.63;;;1.30;;
14251;SDS011;7210;51.502;10.722;2023-10-08T12:54:10;2.90;;;1.40;;
14251;SDS011;7210;51.502;10.722;2023-10-08T12:56:46;5.40;;;1.50;;
14251;SDS011;7210;51.502;10.722;2023-10-08T12:59:16;2.43;;;1.40;;
14251;SDS011;7210;51.502;10.722;2023-10-08T13:01:46;1.90;;;1.50;;
14251;SDS011;7210;51.502;10.722;2023-10-08T13:04:16;1.53;;;1.40;;
14251;SDS011;7210;51.502;10.722;2023-10-08T13:06:54;1.50;;;1.40;;
14251;SDS011;7210;51.502;10.722;2023-10-08T13:09:26;2.70;;;1.27;;
14251;SDS011;7210;51.502;10.722;2023-10-08T13:11:56;2.83;;;1.40;;
14251;SDS011;7210;51.502;10.722;2023-10-08T13:14:26;3.73;;;1.50;;
14251;SDS011;7210;51.502;10.722;2023-10-08T13:16:53;2.93;;;1.40;;
14251;SDS011;7210;51.502;10.722;2023-10-08T13:19:21;2.70;;;1.40;;
14251;SDS011;7210;51.502;10.722;2023-10-08T13:21:51;2.23;;;1.30;;
14251;SDS011;7210;51.502;10.722;2023-10-08T13:24:18;3.33;;;1.60;;
14251;SDS011;7210;51.502;10.722;2023-10-08T13:26:46;2.50;;;1.70;;
14251;SDS011;7210;51.502;10.722;2023-10-08T13:29:18;2.77;;;1.70;;
14251;SDS011;7210;51.502;10.722;2023-10-08T13:31:47;1.90;;;1.50;;
14251;SDS011;7210;51.502;10.722;2023-10-08T13:34:14;5.10;;;1.60;;
14251;SDS011;7210;51.502;10.722;2023-10-08T13:36:42;2.78;;;1.60;;
14251;SDS011;7210;51.502;10.722;2023-10-08T13:39:12;15.40;;;13.75;;
14251;SDS011;7210;51.502;10.722;2023-10-08T13:41:43;7.93;;;5.10;;
14251;SDS011;7210;51.502;10.722;2023-10-08T13:44:13;1.90;;;1.30;;
14251;SDS011;7210;51.502;10.722;2023-10-08T13:46:50;3.07;;;1.90;;
14251;SDS011;7210;51.502;10.722;2023-10-08T13:49:22;3.20;;;2.27;;
14251;SDS011;7210;51.502;10.722;2023-10-08T13:51:52;1.90;;;1.40;;
14251;SDS011;7210;51.502;10.722;2023-10-08T13:54:22;3.63;;;1.93;;
14251;SDS011;7210;51.502;10.722;2023-10-08T13:56:51;2.27;;;1.40;;
14251;SDS011;7210;51.502;10.722;2023-10-08T13:59:18;1.83;;;1.30;;
14251;SDS011;7210;51.502;10.722;2023-10-08T14:01:51;1.73;;;1.30;;
14251;SDS011;7210;51.502;10.722;2023-10-08T14:04:19;1.80;;;1.47;;
14251;SDS011;7210;51.502;10.722;2023-10-08T14:06:55;2.47;;;1.40;;
14251;SDS011;7210;51.502;10.722;2023-10-08T14:09:23;2.73;;;1.57;;
14251;SDS011;7210;51.502;10.722;2023-10-08T14:12:01;4.90;;;1.53;;
14251;SDS011;7210;51.502;10.722;2023-10-08T14:14:29;2.03;;;1.30;;
14251;SDS011;7210;51.502;10.722;2023-10-08T14:16:58;2.40;;;1.37;;
14251;SDS011;7210;51.502;10.722;2023-10-08T14:19:30;2.07;;;1.37;;
14251;SDS011;7210;51.502;10.722;2023-10-08T14:22:06;2.77;;;1.40;;
14251;SDS011;7210;51.502;10.722;2023-10-08T14:24:39;2.13;;;1.20;;
14251;SDS011;7210;51.502;10.722;2023-10-08T14:27:06;3.47;;;1.50;;
14251;SDS011;7210;51.502;10.722;2023-10-08T14:29:36;2.20;;;1.40;;
14251;SDS011;7210;51.502;10.722;2023-10-08T14:32:07;2.53;;;1.47;;
14251;SDS011;7210;51.502;10.722;2023-10-08T14:34:35;3.03;;;1.50;;
14251;SDS011;7210;51.502;10.722;2023-10-08T14:37:20;2.07;;;1.40;;
14251;SDS011;7210;51.502;10.722;2023-10-08T14:40:06;2.83;;;1.50;;
14251;SDS011;7210;51.502;10.722;2023-10-08T14:42:51;2.10;;;1.60;;
14251;SDS011;7210;51.502;10.722;2023-10-08T14:45:22;1.57;;;1.27;;
14251;SDS011;7210;51.502;10.722;2023-10-08T14:47:56;4.17;;;1.60;;
14251;SDS011;7210;51.502;10.722;2023-10-08T14:50:25;2.57;;;1.20;;
14251;SDS011;7210;51.502;10.722;2023-10-08T14:52:56;2.63;;;1.40;;
14251;SDS011;7210;51.502;10.722;2023-10-08T14:55:25;2.83;;;1.40;;
14251;SDS011;7210;51.502;10.722;2023-10-08T14:57:52;2.57;;;1.43;;
14251;SDS011;7210;51.502;10.722;2023-10-08T15:00:20;1.40;;;1.23;;
14251;SDS011;7210;51.502;10.722;2023-10-08T15:02:50;2.00;;;1.40;;
14251;SDS011;7210;51.502;10.722;2023-10-08T15:05:21;1.70;;;1.40;;
14251;SDS011;7210;51.502;10.722;2023-10-08T15:07:49;1.97;;;1.30;;
14251;SDS011;7210;51.502;10.722;2023-10-08T15:10:18;1.80;;;1.10;;
14251;SDS011;7210;51.502;10.722;2023-10-08T15:12:47;1.93;;;1.40;;
14251;SDS011;7210;51.502;10.722;2023-10-08T15:15:17;2.00;;;1.20;;
14251;SDS011;7210;51.502;10.722;2023-10-08T15:17:48;1.60;;;1.30;;
14251;SDS011;7210;51.502;10.722;2023-10-08T15:20:18;1.70;;;1.20;;
14251;SDS011;7210;51.502;10.722;2023-10-08T15:22:48;2.50;;;1.47;;